CheckWX is a tool to help pilots better visualize weather data.  It is not intended as a substitute for an official pre-flight weather briefing.

01:44:59 UTC

KDCA METAR
Ronald Reagan Washington National Airport
Washington, Virginia, USA
Current

34 mins ago

KDCA 240111Z 05008KT 3SM -DZ BR OVC008 04/03 A3021 RMK AO2 DZB0056 CIG 004V012 P0001 T00440028
Observed
Feb-24 @ 01:11 UTC
Wind
  • 050° at 8 KTS
Visibility
3 SM
Flight Rules
IFR
Conditions
Light Drizzle, Mist
Cloud Levels
  • Overcast at 800' AGL
Temperature
C / 39°F
Dewpoint
C / 37°F
Humidity
93%
Altimeter
30.21" Hg
Pressure
1023.02 hPa
Current Rain
0.01"
Previous

49 mins ago

KDCA 240056Z 05009KT 2 1/2SM -DZ BR OVC006 04/03 A3022 RMK AO2 DZB56 CIG 004V009 P0000 T00440028
Observed
Feb-24 @ 00:56 UTC
Wind
  • 050° at 9 KTS
Visibility
2 1/2 SM
Flight Rules
IFR
Conditions
Light Drizzle, Mist
Cloud Levels
  • Overcast at 600' AGL
Temperature
C / 39°F
Dewpoint
C / 37°F
Humidity
93%
Altimeter
30.22" Hg
Pressure
1023.42 hPa
Current Rain
0.01"
Previous

1 hour ago

KDCA 240016Z 02009KT 3SM -RA BR OVC007 04/02 A3025 RMK AO2 P0001 T00390022
Observed
Feb-24 @ 00:16 UTC
Wind
  • 020° at 9 KTS
Visibility
3 SM
Flight Rules
IFR
Conditions
Light Rain, Mist
Cloud Levels
  • Overcast at 700' AGL
Temperature
C / 39°F
Dewpoint
C / 36°F
Humidity
87%
Altimeter
30.25" Hg
Pressure
1024.42 hPa
Current Rain
0.01"